sensor_id;sensor_type;location;lat;lon;timestamp;pressure;altitude;pressure_sealevel;temperature;humidity
1926;BME280;964;42.606;23.588;2023-05-08T00:02:07;94668.03;;;30.25;26.22
1926;BME280;964;42.606;23.588;2023-05-08T00:04:33;94681.44;;;30.23;26.67
1926;BME280;964;42.606;23.588;2023-05-08T00:07:00;94676.34;;;30.80;25.64
1926;BME280;964;42.606;23.588;2023-05-08T00:09:28;94680.47;;;29.82;26.58
1926;BME280;964;42.606;23.588;2023-05-08T00:11:55;94674.84;;;29.85;26.54
1926;BME280;964;42.606;23.588;2023-05-08T00:14:21;94674.81;;;30.58;26.24
1926;BME280;964;42.606;23.588;2023-05-08T00:16:48;94681.03;;;29.71;26.71
1926;BME280;964;42.606;23.588;2023-05-08T00:19:15;94687.63;;;29.64;27.13
1926;BME280;964;42.606;23.588;2023-05-08T00:21:42;94679.94;;;29.92;26.63
1926;BME280;964;42.606;23.588;2023-05-08T00:24:08;94680.50;;;30.26;26.32
1926;BME280;964;42.606;23.588;2023-05-08T00:26:36;94682.56;;;30.45;25.95
1926;BME280;964;42.606;23.588;2023-05-08T00:29:03;94688.63;;;30.20;26.36
1926;BME280;964;42.606;23.588;2023-05-08T00:31:29;94697.34;;;30.53;26.25
1926;BME280;964;42.606;23.588;2023-05-08T00:33:57;94682.09;;;30.82;25.78
1926;BME280;964;42.606;23.588;2023-05-08T00:36:23;94686.69;;;29.67;26.83
1926;BME280;964;42.606;23.588;2023-05-08T00:38:50;94683.69;;;29.95;26.59
1926;BME280;964;42.606;23.588;2023-05-08T00:41:17;94687.53;;;29.74;26.80
1926;BME280;964;42.606;23.588;2023-05-08T00:43:45;94686.88;;;30.67;25.74
1926;BME280;964;42.606;23.588;2023-05-08T00:46:11;94696.03;;;29.37;27.03
1926;BME280;964;42.606;23.588;2023-05-08T00:48:39;94682.38;;;29.76;26.54
1926;BME280;964;42.606;23.588;2023-05-08T00:51:07;94688.06;;;30.16;26.16
1926;BME280;964;42.606;23.588;2023-05-08T00:53:38;94690.09;;;30.21;26.31
1926;BME280;964;42.606;23.588;2023-05-08T00:56:05;94685.31;;;30.45;26.13
1926;BME280;964;42.606;23.588;2023-05-08T00:58:35;94688.97;;;30.28;26.34
1926;BME280;964;42.606;23.588;2023-05-08T01:01:04;94689.69;;;30.57;26.08
1926;BME280;964;42.606;23.588;2023-05-08T01:03:31;94689.69;;;30.57;25.79
1926;BME280;964;42.606;23.588;2023-05-08T01:05:58;94694.44;;;30.28;26.39
1926;BME280;964;42.606;23.588;2023-05-08T01:08:25;94695.84;;;29.79;27.11
1926;BME280;964;42.606;23.588;2023-05-08T01:11:00;94691.81;;;30.04;26.71
1926;BME280;964;42.606;23.588;2023-05-08T01:13:39;94703.47;;;29.75;27.05
1926;BME280;964;42.606;23.588;2023-05-08T01:16:13;94712.84;;;29.12;27.93
1926;BME280;964;42.606;23.588;2023-05-08T01:18:44;94712.06;;;28.13;28.67
1926;BME280;964;42.606;23.588;2023-05-08T01:21:18;94712.69;;;28.50;28.82
1926;BME280;964;42.606;23.588;2023-05-08T01:24:03;94714.88;;;28.37;29.32
1926;BME280;964;42.606;23.588;2023-05-08T01:26:54;94720.22;;;28.22;28.93
1926;BME280;964;42.606;23.588;2023-05-08T01:29:47;94708.50;;;29.05;28.19
1926;BME280;964;42.606;23.588;2023-05-08T01:32:22;94712.78;;;28.73;28.59
1926;BME280;964;42.606;23.588;2023-05-08T01:34:57;94716.00;;;28.96;28.27
1926;BME280;964;42.606;23.588;2023-05-08T01:37:32;94717.75;;;28.75;28.56
1926;BME280;964;42.606;23.588;2023-05-08T01:40:08;94710.75;;;27.90;29.58
1926;BME280;964;42.606;23.588;2023-05-08T01:42:45;94705.16;;;27.75;29.71
1926;BME280;964;42.606;23.588;2023-05-08T01:45:18;94715.16;;;27.60;29.86
1926;BME280;964;42.606;23.588;2023-05-08T01:47:54;94710.78;;;26.77;30.90
1926;BME280;964;42.606;23.588;2023-05-08T01:50:30;94707.81;;;26.94;30.66
1926;BME280;964;42.606;23.588;2023-05-08T01:53:04;94704.38;;;27.20;30.62
1926;BME280;964;42.606;23.588;2023-05-08T01:55:34;94706.81;;;26.29;31.94
1926;BME280;964;42.606;23.588;2023-05-08T01:58:07;94703.63;;;26.22;32.00
1926;BME280;964;42.606;23.588;2023-05-08T02:00:37;94703.75;;;26.58;31.24
1926;BME280;964;42.606;23.588;2023-05-08T02:03:07;94701.91;;;26.46;31.61
1926;BME280;964;42.606;23.588;2023-05-08T02:05:36;94698.66;;;26.69;31.19
1926;BME280;964;42.606;23.588;2023-05-08T02:08:03;94698.75;;;26.48;31.55
1926;BME280;964;42.606;23.588;2023-05-08T02:10:33;94700.59;;;27.36;30.64
1926;BME280;964;42.606;23.588;2023-05-08T02:13:01;94699.09;;;27.90;29.77
1926;BME280;964;42.606;23.588;2023-05-08T02:15:30;94692.16;;;27.52;30.13
1926;BME280;964;42.606;23.588;2023-05-08T02:18:01;94687.63;;;27.67;29.90
1926;BME280;964;42.606;23.588;2023-05-08T02:20:31;94681.28;;;28.31;29.16
1926;BME280;964;42.606;23.588;2023-05-08T02:22:58;94695.13;;;27.18;30.66
1926;BME280;964;42.606;23.588;2023-05-08T02:25:27;94691.78;;;27.96;29.54
1926;BME280;964;42.606;23.588;2023-05-08T02:27:56;94693.34;;;27.78;29.66
1926;BME280;964;42.606;23.588;2023-05-08T02:30:24;94695.31;;;28.38;29.21
1926;BME280;964;42.606;23.588;2023-05-08T02:32:52;94702.53;;;27.99;29.64
1926;BME280;964;42.606;23.588;2023-05-08T02:35:20;94705.34;;;28.41;29.18
1926;BME280;964;42.606;23.588;2023-05-08T02:37:52;94695.59;;;28.49;28.79
1926;BME280;964;42.606;23.588;2023-05-08T02:40:21;94700.59;;;27.27;30.12
1926;BME280;964;42.606;23.588;2023-05-08T02:42:49;94699.72;;;27.39;30.11
1926;BME280;964;42.606;23.588;2023-05-08T02:45:16;94710.72;;;26.59;31.29
1926;BME280;964;42.606;23.588;2023-05-08T02:47:47;94712.63;;;26.90;31.42
1926;BME280;964;42.606;23.588;2023-05-08T02:50:21;94706.97;;;27.42;30.34
1926;BME280;964;42.606;23.588;2023-05-08T02:52:53;94700.88;;;27.93;29.80
1926;BME280;964;42.606;23.588;2023-05-08T02:55:34;94699.38;;;27.92;29.74
1926;BME280;964;42.606;23.588;2023-05-08T02:58:12;94692.47;;;27.63;30.06
1926;BME280;964;42.606;23.588;2023-05-08T03:00:45;94701.97;;;27.41;30.86
1926;BME280;964;42.606;23.588;2023-05-08T03:03:18;94706.50;;;27.44;30.68
1926;BME280;964;42.606;23.588;2023-05-08T03:05:50;94709.56;;;27.64;29.97
1926;BME280;964;42.606;23.588;2023-05-08T03:08:23;94696.75;;;28.24;29.62
1926;BME280;964;42.606;23.588;2023-05-08T03:10:53;94699.16;;;28.73;28.66
1926;BME280;964;42.606;23.588;2023-05-08T03:13:21;94697.19;;;28.65;29.08
1926;BME280;964;42.606;23.588;2023-05-08T03:15:52;94692.91;;;29.06;28.33
1926;BME280;964;42.606;23.588;2023-05-08T03:18:23;94692.66;;;29.42;28.10
1926;BME280;964;42.606;23.588;2023-05-08T03:20:53;94689.31;;;29.77;27.42
1926;BME280;964;42.606;23.588;2023-05-08T03:23:23;94711.03;;;29.18;28.65
1926;BME280;964;42.606;23.588;2023-05-08T03:25:52;94708.81;;;29.31;28.07
1926;BME280;964;42.606;23.588;2023-05-08T03:28:20;94704.38;;;29.57;27.73
1926;BME280;964;42.606;23.588;2023-05-08T03:30:48;94703.63;;;29.72;27.93
1926;BME280;964;42.606;23.588;2023-05-08T03:33:16;94708.75;;;29.79;27.70
1926;BME280;964;42.606;23.588;2023-05-08T03:35:44;94704.78;;;29.80;28.10
1926;BME280;964;42.606;23.588;2023-05-08T03:38:11;94704.59;;;29.83;27.86
1926;BME280;964;42.606;23.588;2023-05-08T03:40:39;94704.38;;;29.57;27.99
1926;BME280;964;42.606;23.588;2023-05-08T03:43:07;94708.91;;;29.75;27.97
1926;BME280;964;42.606;23.588;2023-05-08T03:45:34;94707.25;;;29.92;28.08
1926;BME280;964;42.606;23.588;2023-05-08T03:48:03;94716.59;;;29.86;28.23
1926;BME280;964;42.606;23.588;2023-05-08T03:50:31;94707.78;;;29.82;27.88
1926;BME280;964;42.606;23.588;2023-05-08T03:52:58;94715.00;;;29.94;28.27
1926;BME280;964;42.606;23.588;2023-05-08T03:55:25;94707.66;;;30.14;28.25
1926;BME280;964;42.606;23.588;2023-05-08T03:57:56;94720.28;;;30.41;27.72
1926;BME280;964;42.606;23.588;2023-05-08T04:00:31;94714.50;;;30.69;27.59
1926;BME280;964;42.606;23.588;2023-05-08T04:03:17;94715.09;;;31.07;27.08
1926;BME280;964;42.606;23.588;2023-05-08T04:05:50;94712.00;;;31.20;26.84
1926;BME280;964;42.606;23.588;2023-05-08T04:08:24;94723.72;;;31.21;27.13
1926;BME280;964;42.606;23.588;2023-05-08T04:10:58;94715.63;;;31.52;26.29
1926;BME280;964;42.606;23.588;2023-05-08T04:13:33;94720.69;;;31.59;26.08
1926;BME280;964;42.606;23.588;2023-05-08T04:16:05;94722.09;;;31.69;25.63
1926;BME280;964;42.606;23.588;2023-05-08T04:18:36;94717.72;;;31.83;25.44
1926;BME280;964;42.606;23.588;2023-05-08T04:21:07;94724.31;;;31.71;25.86
1926;BME280;964;42.606;23.588;2023-05-08T04:23:35;94732.88;;;31.78;25.86
1926;BME280;964;42.606;23.588;2023-05-08T04:26:04;94728.84;;;31.74;25.33
1926;BME280;964;42.606;23.588;2023-05-08T04:28:33;94722.56;;;31.93;25.32
1926;BME280;964;42.606;23.588;2023-05-08T04:31:02;94729.63;;;32.00;25.58
1926;BME280;964;42.606;23.588;2023-05-08T04:33:29;94730.25;;;31.89;25.54
1926;BME280;964;42.606;23.588;2023-05-08T04:35:57;94722.59;;;32.19;25.00
1926;BME280;964;42.606;23.588;2023-05-08T04:38:26;94724.84;;;31.95;25.26
1926;BME280;964;42.606;23.588;2023-05-08T04:40:52;94717.56;;;31.92;25.42
1926;BME280;964;42.606;23.588;2023-05-08T04:43:19;94717.00;;;32.08;25.74
1926;BME280;964;42.606;23.588;2023-05-08T04:45:47;94722.59;;;32.19;25.33
1926;BME280;964;42.606;23.588;2023-05-08T04:48:14;94714.03;;;32.37;25.67
1926;BME280;964;42.606;23.588;2023-05-08T04:50:41;94711.28;;;32.37;25.64
1926;BME280;964;42.606;23.588;2023-05-08T04:53:07;94715.00;;;31.83;25.87
1926;BME280;964;42.606;23.588;2023-05-08T04:55:34;94716.84;;;32.17;25.61
1926;BME280;964;42.606;23.588;2023-05-08T04:58:01;94715.78;;;31.89;26.21
1926;BME280;964;42.606;23.588;2023-05-08T05:00:27;94721.66;;;31.76;25.76
1926;BME280;964;42.606;23.588;2023-05-08T05:02:55;94716.44;;;32.04;26.10
1926;BME280;964;42.606;23.588;2023-05-08T05:05:22;94715.56;;;31.26;26.69
1926;BME280;964;42.606;23.588;2023-05-08T05:07:48;94714.03;;;32.37;25.82
1926;BME280;964;42.606;23.588;2023-05-08T05:10:15;94706.78;;;32.34;25.40
1926;BME280;964;42.606;23.588;2023-05-08T05:12:42;94711.00;;;32.35;25.44
1926;BME280;964;42.606;23.588;2023-05-08T05:15:10;94709.53;;;32.66;25.10
1926;BME280;964;42.606;23.588;2023-05-08T05:17:36;94707.19;;;32.58;25.17
1926;BME280;964;42.606;23.588;2023-05-08T05:20:06;94708.59;;;33.17;24.47
1926;BME280;964;42.606;23.588;2023-05-08T05:22:33;94709.66;;;33.25;25.00
1926;BME280;964;42.606;23.588;2023-05-08T05:24:59;94701.84;;;33.12;24.60
1926;BME280;964;42.606;23.588;2023-05-08T05:27:26;94704.03;;;32.66;24.91
1926;BME280;964;42.606;23.588;2023-05-08T05:29:53;94707.41;;;32.86;24.91
1926;BME280;964;42.606;23.588;2023-05-08T05:32:19;94704.47;;;32.95;25.06
1926;BME280;964;42.606;23.588;2023-05-08T05:34:46;94706.97;;;33.41;24.39
1926;BME280;964;42.606;23.588;2023-05-08T05:37:14;94695.53;;;33.60;24.40
1926;BME280;964;42.606;23.588;2023-05-08T05:39:40;94705.41;;;33.24;25.04
1926;BME280;964;42.606;23.588;2023-05-08T05:42:07;94701.41;;;33.30;24.85
1926;BME280;964;42.606;23.588;2023-05-08T05:44:34;94692.16;;;33.98;24.72
1926;BME280;964;42.606;23.588;2023-05-08T05:47:01;94700.66;;;34.00;24.47
1926;BME280;964;42.606;23.588;2023-05-08T05:49:29;94699.63;;;33.86;24.69
1926;BME280;964;42.606;23.588;2023-05-08T05:51:56;94699.34;;;33.68;24.68
1926;BME280;964;42.606;23.588;2023-05-08T05:54:24;94694.19;;;34.25;24.24
1926;BME280;964;42.606;23.588;2023-05-08T05:56:50;94689.66;;;34.00;24.47
1926;BME280;964;42.606;23.588;2023-05-08T05:59:17;94676.94;;;34.14;24.12
1926;BME280;964;42.606;23.588;2023-05-08T06:01:44;94681.44;;;34.56;23.90
1926;BME280;964;42.606;23.588;2023-05-08T06:04:10;94671.94;;;34.73;23.51
1926;BME280;964;42.606;23.588;2023-05-08T06:06:37;94679.19;;;34.26;24.07
1926;BME280;964;42.606;23.588;2023-05-08T06:09:04;94676.69;;;34.51;23.77
1926;BME280;964;42.606;23.588;2023-05-08T06:11:32;94669.19;;;34.51;23.99
1926;BME280;964;42.606;23.588;2023-05-08T06:13:59;94669.91;;;34.85;23.77
1926;BME280;964;42.606;23.588;2023-05-08T06:16:26;94674.69;;;34.79;23.89
1926;BME280;964;42.606;23.588;2023-05-08T06:18:54;94670.03;;;35.31;23.58
1926;BME280;964;42.606;23.588;2023-05-08T06:21:21;94662.56;;;35.26;23.60
1926;BME280;964;42.606;23.588;2023-05-08T06:23:48;94667.72;;;35.93;22.88
1926;BME280;964;42.606;23.588;2023-05-08T06:26:15;94665.81;;;36.18;22.34
1926;BME280;964;42.606;23.588;2023-05-08T06:28:43;94662.63;;;36.08;23.01
1926;BME280;964;42.606;23.588;2023-05-08T06:31:10;94664.03;;;35.27;24.17
1926;BME280;964;42.606;23.588;2023-05-08T06:33:36;94667.03;;;36.22;23.12
1926;BME280;964;42.606;23.588;2023-05-08T06:36:03;94665.81;;;36.18;22.47
1926;BME280;964;42.606;23.588;2023-05-08T06:38:30;94670.13;;;36.13;23.01
1926;BME280;964;42.606;23.588;2023-05-08T06:40:57;94664.63;;;36.43;22.72
1926;BME280;964;42.606;23.588;2023-05-08T06:43:24;94668.34;;;36.46;22.43
1926;BME280;964;42.606;23.588;2023-05-08T06:45:52;94656.31;;;36.73;22.64
1926;BME280;964;42.606;23.588;2023-05-08T06:48:19;94657.03;;;36.49;23.25
1926;BME280;964;42.606;23.588;2023-05-08T06:50:46;94656.09;;;36.71;22.32
1926;BME280;964;42.606;23.588;2023-05-08T06:53:12;94653.94;;;36.28;22.94
1926;BME280;964;42.606;23.588;2023-05-08T06:55:41;94664.56;;;35.78;23.29
1926;BME280;964;42.606;23.588;2023-05-08T06:58:08;94666.06;;;35.21;23.90
1926;BME280;964;42.606;23.588;2023-05-08T07:00:35;94668.94;;;35.62;23.35
1926;BME280;964;42.606;23.588;2023-05-08T07:03:03;94666.47;;;36.29;23.12
1926;BME280;964;42.606;23.588;2023-05-08T07:05:30;94673.50;;;36.30;22.92
1926;BME280;964;42.606;23.588;2023-05-08T07:07:56;94668.84;;;36.14;23.08
1926;BME280;964;42.606;23.588;2023-05-08T07:10:23;94673.09;;;36.15;23.10
1926;BME280;964;42.606;23.588;2023-05-08T07:12:50;94665.03;;;36.82;22.04
1926;BME280;964;42.606;23.588;2023-05-08T07:15:17;94665.59;;;37.67;21.06
1926;BME280;964;42.606;23.588;2023-05-08T07:17:44;94660.81;;;37.49;21.81
1926;BME280;964;42.606;23.588;2023-05-08T07:20:12;94654.16;;;38.71;20.56
1926;BME280;964;42.606;23.588;2023-05-08T07:22:39;94650.53;;;38.76;20.91
1926;BME280;964;42.606;23.588;2023-05-08T07:25:06;94660.25;;;38.06;21.05
1926;BME280;964;42.606;23.588;2023-05-08T07:27:33;94655.09;;;37.97;21.45
1926;BME280;964;42.606;23.588;2023-05-08T07:30:01;94660.41;;;37.58;21.64
1926;BME280;964;42.606;23.588;2023-05-08T07:32:28;94662.88;;;37.80;21.19
1926;BME280;964;42.606;23.588;2023-05-08T07:34:56;94656.94;;;37.89;21.33
1926;BME280;964;42.606;23.588;2023-05-08T07:37:24;94660.53;;;38.21;21.18
1926;BME280;964;42.606;23.588;2023-05-08T07:39:51;94652.22;;;38.53;20.85
1926;BME280;964;42.606;23.588;2023-05-08T07:42:18;94662.06;;;38.36;21.33
1926;BME280;964;42.606;23.588;2023-05-08T07:44:45;94664.38;;;37.62;21.74
1926;BME280;964;42.606;23.588;2023-05-08T07:47:12;94671.53;;;37.71;21.84
1926;BME280;964;42.606;23.588;2023-05-08T07:49:38;94661.91;;;38.47;21.95
1926;BME280;964;42.606;23.588;2023-05-08T07:52:05;94659.84;;;39.18;20.61
1926;BME280;964;42.606;23.588;2023-05-08T07:54:33;94658.94;;;39.89;20.80
1926;BME280;964;42.606;23.588;2023-05-08T07:57:00;94646.50;;;39.43;20.23
1926;BME280;964;42.606;23.588;2023-05-08T07:59:27;94662.94;;;37.93;21.75
1926;BME280;964;42.606;23.588;2023-05-08T08:01:53;94659.34;;;38.94;20.79
1926;BME280;964;42.606;23.588;2023-05-08T08:04:20;94660.91;;;39.02;20.49
1926;BME280;964;42.606;23.588;2023-05-08T08:06:47;94665.78;;;38.38;21.95
1926;BME280;964;42.606;23.588;2023-05-08T08:09:13;94653.84;;;38.75;21.23
1926;BME280;964;42.606;23.588;2023-05-08T08:11:42;94658.75;;;38.82;21.42
1926;BME280;964;42.606;23.588;2023-05-08T08:14:08;94663.47;;;39.53;21.00
1926;BME280;964;42.606;23.588;2023-05-08T08:16:35;94654.75;;;39.36;20.69
1926;BME280;964;42.606;23.588;2023-05-08T08:19:02;94652.13;;;39.77;20.60
1926;BME280;964;42.606;23.588;2023-05-08T08:21:29;94657.22;;;39.86;19.65
1926;BME280;964;42.606;23.588;2023-05-08T08:23:55;94659.97;;;39.39;20.19
1926;BME280;964;42.606;23.588;2023-05-08T08:26:23;94656.06;;;39.82;20.54
1926;BME280;964;42.606;23.588;2023-05-08T08:28:51;94656.94;;;39.97;20.51
1926;BME280;964;42.606;23.588;2023-05-08T08:31:18;94654.81;;;40.03;20.84
1926;BME280;964;42.606;23.588;2023-05-08T08:33:45;94652.75;;;39.83;20.54
1926;BME280;964;42.606;23.588;2023-05-08T08:36:12;94663.84;;;38.65;20.81
1926;BME280;964;42.606;23.588;2023-05-08T08:38:39;94654.91;;;38.72;20.80
1926;BME280;964;42.606;23.588;2023-05-08T08:41:05;94654.13;;;39.30;20.27
1926;BME280;964;42.606;23.588;2023-05-08T08:43:33;94655.56;;;39.70;19.92
1926;BME280;964;42.606;23.588;2023-05-08T08:46:09;94652.78;;;38.78;20.82
1926;BME280;964;42.606;23.588;2023-05-08T08:48:36;94644.38;;;39.96;20.25
1926;BME280;964;42.606;23.588;2023-05-08T08:51:13;94638.84;;;40.38;20.56
1926;BME280;964;42.606;23.588;2023-05-08T08:53:43;94643.69;;;40.86;19.61
1926;BME280;964;42.606;23.588;2023-05-08T08:56:13;94644.00;;;40.34;19.89
1926;BME280;964;42.606;23.588;2023-05-08T08:58:46;94647.81;;;39.89;20.25
1926;BME280;964;42.606;23.588;2023-05-08T09:01:18;94649.72;;;38.95;21.34
1926;BME280;964;42.606;23.588;2023-05-08T09:03:46;94640.25;;;39.03;21.06
1926;BME280;964;42.606;23.588;2023-05-08T09:06:13;94639.13;;;40.27;20.37
1926;BME280;964;42.606;23.588;2023-05-08T09:08:40;94633.69;;;40.42;20.27
1926;BME280;964;42.606;23.588;2023-05-08T09:11:07;94642.69;;;39.20;21.01
1926;BME280;964;42.606;23.588;2023-05-08T09:13:34;94617.78;;;40.63;20.30
1926;BME280;964;42.606;23.588;2023-05-08T09:16:01;94621.09;;;39.99;19.91
1926;BME280;964;42.606;23.588;2023-05-08T09:18:29;94625.91;;;39.52;20.82
1926;BME280;964;42.606;23.588;2023-05-08T09:20:56;94623.13;;;38.60;21.59
1926;BME280;964;42.606;23.588;2023-05-08T09:23:24;94630.00;;;38.85;21.36
1926;BME280;964;42.606;23.588;2023-05-08T09:25:51;94620.66;;;39.95;20.24
1926;BME280;964;42.606;23.588;2023-05-08T09:28:19;94614.00;;;39.04;21.26
1926;BME280;964;42.606;23.588;2023-05-08T09:30:53;94619.88;;;39.27;21.00
1926;BME280;964;42.606;23.588;2023-05-08T09:33:21;94609.00;;;38.90;21.39
1926;BME280;964;42.606;23.588;2023-05-08T09:35:50;94617.06;;;39.87;20.70
1926;BME280;964;42.606;23.588;2023-05-08T09:38:34;94618.22;;;39.71;20.73
1926;BME280;964;42.606;23.588;2023-05-08T09:41:09;94616.56;;;39.42;20.30
1926;BME280;964;42.606;23.588;2023-05-08T09:43:37;94613.75;;;38.63;21.46
1926;BME280;964;42.606;23.588;2023-05-08T09:46:20;94617.41;;;38.84;21.31
1926;BME280;964;42.606;23.588;2023-05-08T09:48:48;94616.97;;;37.71;22.10
1926;BME280;964;42.606;23.588;2023-05-08T09:51:16;94618.94;;;38.08;22.26
1926;BME280;964;42.606;23.588;2023-05-08T09:53:43;94620.22;;;38.07;22.08
1926;BME280;964;42.606;23.588;2023-05-08T09:56:10;94616.22;;;37.71;22.00
1926;BME280;964;42.606;23.588;2023-05-08T09:58:37;94594.91;;;38.16;21.70
1926;BME280;964;42.606;23.588;2023-05-08T10:01:05;94594.59;;;38.65;21.71
1926;BME280;964;42.606;23.588;2023-05-08T10:03:47;94585.00;;;38.66;21.43
1926;BME280;964;42.606;23.588;2023-05-08T10:06:16;94591.81;;;38.65;21.56
1926;BME280;964;42.606;23.588;2023-05-08T10:08:42;94590.53;;;38.79;21.73
1926;BME280;964;42.606;23.588;2023-05-08T10:11:12;94592.16;;;39.27;20.51
1926;BME280;964;42.606;23.588;2023-05-08T10:13:40;94594.00;;;38.98;21.19
1926;BME280;964;42.606;23.588;2023-05-08T10:16:12;94593.72;;;39.09;21.57
1926;BME280;964;42.606;23.588;2023-05-08T10:18:42;94600.69;;;39.03;21.87
1926;BME280;964;42.606;23.588;2023-05-08T10:21:12;94604.19;;;38.64;22.09
1926;BME280;964;42.606;23.588;2023-05-08T10:23:41;94593.72;;;39.09;21.91
1926;BME280;964;42.606;23.588;2023-05-08T10:26:11;94591.78;;;39.44;21.56
1926;BME280;964;42.606;23.588;2023-05-08T10:28:42;94592.81;;;39.54;21.42
1926;BME280;964;42.606;23.588;2023-05-08T10:31:11;94591.56;;;40.09;21.23
1926;BME280;964;42.606;23.588;2023-05-08T10:33:40;94584.53;;;41.14;20.10
1926;BME280;964;42.606;23.588;2023-05-08T10:36:10;94570.91;;;41.82;19.51
1926;BME280;964;42.606;23.588;2023-05-08T10:38:38;94568.22;;;40.54;20.97
1926;BME280;964;42.606;23.588;2023-05-08T10:41:09;94563.38;;;41.03;20.61
1926;BME280;964;42.606;23.588;2023-05-08T10:43:40;94567.56;;;40.97;20.12
1926;BME280;964;42.606;23.588;2023-05-08T10:46:15;94568.75;;;40.24;20.66
1926;BME280;964;42.606;23.588;2023-05-08T10:48:50;94571.72;;;39.51;21.59
1926;BME280;964;42.606;23.588;2023-05-08T10:51:24;94573.22;;;40.06;21.84
1926;BME280;964;42.606;23.588;2023-05-08T10:53:54;94563.84;;;39.42;21.98
1926;BME280;964;42.606;23.588;2023-05-08T10:56:26;94568.13;;;39.97;20.71
1926;BME280;964;42.606;23.588;2023-05-08T10:58:55;94562.22;;;39.46;21.93
1926;BME280;964;42.606;23.588;2023-05-08T11:01:22;94566.31;;;39.66;21.40
1926;BME280;964;42.606;23.588;2023-05-08T11:03:49;94574.13;;;38.81;22.67
1926;BME280;964;42.606;23.588;2023-05-08T11:06:16;94566.66;;;39.62;21.65
1926;BME280;964;42.606;23.588;2023-05-08T11:08:48;94563.28;;;39.56;21.86
1926;BME280;964;42.606;23.588;2023-05-08T11:11:27;94568.69;;;39.62;22.23
1926;BME280;964;42.606;23.588;2023-05-08T11:13:58;94553.44;;;40.59;21.04
1926;BME280;964;42.606;23.588;2023-05-08T11:17:05;94544.31;;;41.66;20.81
1926;BME280;964;42.606;23.588;2023-05-08T11:19:33;94530.78;;;42.61;19.95
1926;BME280;964;42.606;23.588;2023-05-08T11:22:19;94526.31;;;43.68;18.67
1926;BME280;964;42.606;23.588;2023-05-08T11:24:49;94520.38;;;43.32;19.33
1926;BME280;964;42.606;23.588;2023-05-08T11:27:17;94528.47;;;42.97;18.92
1926;BME280;964;42.606;23.588;2023-05-08T11:29:44;94513.41;;;43.00;18.78
1926;BME280;964;42.606;23.588;2023-05-08T11:32:11;94527.97;;;41.55;19.74
1926;BME280;964;42.606;23.588;2023-05-08T11:34:44;94523.13;;;41.48;20.09
1926;BME280;964;42.606;23.588;2023-05-08T11:37:15;94529.53;;;42.32;20.09
1926;BME280;964;42.606;23.588;2023-05-08T11:39:42;94531.00;;;41.87;20.59
1926;BME280;964;42.606;23.588;2023-05-08T11:42:35;94508.44;;;43.71;18.53
1926;BME280;964;42.606;23.588;2023-05-08T11:45:06;94502.63;;;43.05;18.28
1926;BME280;964;42.606;23.588;2023-05-08T11:47:37;94503.06;;;42.78;18.52
1926;BME280;964;42.606;23.588;2023-05-08T11:50:05;94489.88;;;43.91;17.11
1926;BME280;964;42.606;23.588;2023-05-08T11:52:33;94490.03;;;43.68;17.72
1926;BME280;964;42.606;23.588;2023-05-08T11:55:02;94484.88;;;43.89;17.75
1926;BME280;964;42.606;23.588;2023-05-08T11:57:29;94471.16;;;44.95;17.70
1926;BME280;964;42.606;23.588;2023-05-08T12:00:03;94469.03;;;44.85;18.41
1926;BME280;964;42.606;23.588;2023-05-08T12:02:36;94463.06;;;45.69;17.31
1926;BME280;964;42.606;23.588;2023-05-08T12:05:04;94461.97;;;44.33;18.22
1926;BME280;964;42.606;23.588;2023-05-08T12:07:32;94455.53;;;45.09;16.60
1926;BME280;964;42.606;23.588;2023-05-08T12:10:00;94448.84;;;45.21;17.13
1926;BME280;964;42.606;23.588;2023-05-08T12:12:36;94450.34;;;45.05;17.52
1926;BME280;964;42.606;23.588;2023-05-08T12:15:08;94447.53;;;45.95;16.68
1926;BME280;964;42.606;23.588;2023-05-08T12:17:35;94445.28;;;45.74;16.84
1926;BME280;964;42.606;23.588;2023-05-08T12:20:09;94440.00;;;45.78;16.06
1926;BME280;964;42.606;23.588;2023-05-08T12:22:37;94446.00;;;44.26;17.21
1926;BME280;964;42.606;23.588;2023-05-08T12:25:06;94444.66;;;45.13;16.59
1926;BME280;964;42.606;23.588;2023-05-08T12:27:33;94444.69;;;44.78;17.85
1926;BME280;964;42.606;23.588;2023-05-08T12:29:59;94446.25;;;44.72;16.95
1926;BME280;964;42.606;23.588;2023-05-08T12:32:28;94433.66;;;45.51;16.52
1926;BME280;964;42.606;23.588;2023-05-08T12:34:55;94440.75;;;44.64;17.24
1926;BME280;964;42.606;23.588;2023-05-08T12:37:23;94426.53;;;46.42;15.31
1926;BME280;964;42.606;23.588;2023-05-08T12:39:52;94432.53;;;46.00;15.69
1926;BME280;964;42.606;23.588;2023-05-08T12:42:18;94429.41;;;45.50;16.82
1926;BME280;964;42.606;23.588;2023-05-08T12:44:49;94422.44;;;46.62;15.06
1926;BME280;964;42.606;23.588;2023-05-08T12:47:17;94415.66;;;46.65;16.54
1926;BME280;964;42.606;23.588;2023-05-08T12:49:46;94414.66;;;45.96;16.35
1926;BME280;964;42.606;23.588;2023-05-08T12:52:14;94429.91;;;44.68;16.85
1926;BME280;964;42.606;23.588;2023-05-08T12:54:46;94428.16;;;44.21;16.77
1926;BME280;964;42.606;23.588;2023-05-08T12:57:14;94428.59;;;43.36;17.30
1926;BME280;964;42.606;23.588;2023-05-08T12:59:42;94428.09;;;42.35;18.63
1926;BME280;964;42.606;23.588;2023-05-08T13:02:14;94437.69;;;41.05;19.59
1926;BME280;964;42.606;23.588;2023-05-08T13:04:42;94439.81;;;41.50;18.48
1926;BME280;964;42.606;23.588;2023-05-08T13:07:10;94423.69;;;41.86;18.55
1926;BME280;964;42.606;23.588;2023-05-08T13:09:37;94426.28;;;42.15;18.01
1926;BME280;964;42.606;23.588;2023-05-08T13:12:04;94431.84;;;41.54;18.82
1926;BME280;964;42.606;23.588;2023-05-08T13:14:31;94437.72;;;40.69;21.39
1926;BME280;964;42.606;23.588;2023-05-08T13:16:58;94444.03;;;39.43;22.75
1926;BME280;964;42.606;23.588;2023-05-08T13:19:25;94440.66;;;39.03;23.57
1926;BME280;964;42.606;23.588;2023-05-08T13:21:52;94450.13;;;38.21;24.60
1926;BME280;964;42.606;23.588;2023-05-08T13:24:20;94443.88;;;38.94;24.58
1926;BME280;964;42.606;23.588;2023-05-08T13:26:47;94468.88;;;36.64;26.03
1926;BME280;964;42.606;23.588;2023-05-08T13:29:14;94476.34;;;37.06;25.03
1926;BME280;964;42.606;23.588;2023-05-08T13:31:40;94480.69;;;37.20;24.83
1926;BME280;964;42.606;23.588;2023-05-08T13:34:07;94474.91;;;37.37;25.30